Time;durP1;ratioP1;P1;durP2;ratioP2;P2;SDS_P1;SDS_P2;PMS_P1;PMS_P2;Temp;Humidity;BMP_temperature;BMP_pressure;BME280_temperature;BME280_humidity;BME280_pressure;Samples;Min_cycle;Max_cycle;Signal;HPM_P1;HPM_P2
2023/08/08 00:00:09;;;;;;;;;;;;;;;24.18;56.93;99129.19;345080;28;773;-76
2023/08/08 00:00:20;;;;;;;;;;;;;;;24.18;56.73;99137.22;344160;28;859;-76
2023/08/08 00:00:30;;;;;;;;;;;;;;;24.18;57.35;99134.53;347663;28;1677;-76
2023/08/08 00:00:40;;;;;;;;;;;;;;;24.19;57.19;99130.88;346223;28;1227;-76
2023/08/08 00:00:50;;;;;;;;;;;;;;;24.19;57.43;99133.53;344780;28;1306;-76
2023/08/08 00:01:01;;;;;;;;;;;;;;;24.19;57.64;99130.88;346291;28;1294;-76
2023/08/08 00:01:11;;;;;;;;;;;;;;;24.19;57.16;99130.03;346233;28;794;-76
2023/08/08 00:01:21;;;;;;;;;;;;;;;24.18;57.85;99131.88;347008;28;2147;-76
2023/08/08 00:01:31;;;;;;;;;;;;;;;24.20;57.35;99132.53;347589;28;2582;-76
2023/08/08 00:01:42;;;;;;;;;;;;;;;24.22;56.87;99132.38;344894;28;1453;-76
2023/08/08 00:01:53;;;;;;;;;;;;;;;24.24;56.67;99126.88;344533;28;1238;-76
2023/08/08 00:02:03;;;;;;;;;;;;;;;24.23;57.14;99131.38;346197;28;1185;-76
2023/08/08 00:02:13;;;;;;;;;;;;;;;24.23;57.19;99138.56;343570;28;982;-76
2023/08/08 00:02:23;;;;;;;;;;;;;;;24.23;57.01;99138.56;343869;28;1039;-76
2023/08/08 00:02:34;;;;;;;;;;;;;;;24.20;56.63;99131.69;345623;28;1165;-76
2023/08/08 00:02:44;;;;;;;;;;;;;;;24.17;56.62;99130.19;347692;28;1191;-76
2023/08/08 00:02:54;;;;;;;;;;;;;;;24.16;56.84;99125.00;347344;28;1303;-76
2023/08/08 00:03:04;;;;;;;;;;;;;;;24.11;57.07;99136.16;349365;28;1330;-76
2023/08/08 00:03:15;;;;;;;;;;;;;;;24.08;56.98;99131.16;347506;28;1317;-76
2023/08/08 00:03:25;;;;;;;;;;;;;;;24.05;57.09;99131.47;348960;28;1219;-76
2023/08/08 00:03:35;;;;;;;;;;;;;;;24.04;56.87;99132.47;350481;28;1223;-76
2023/08/08 00:03:45;;;;;;;;;;;;;;;24.03;57.32;99140.63;350449;28;792;-76
2023/08/08 00:03:55;;;;;;;;;;;;;;;24.05;57.23;99126.13;347664;28;1520;-76
2023/08/08 00:04:06;;;;;;;;;;;;;;;24.06;57.40;99135.81;347677;28;911;-76
2023/08/08 00:04:16;;;;;;;;;;;;;;;24.09;57.40;99135.50;347389;28;1061;-76
2023/08/08 00:04:26;;;;;;;;;;;;;;;24.11;57.16;99138.00;346370;28;896;-76
2023/08/08 00:04:36;;;;;;;;;;;;;;;24.13;57.97;99136.84;344760;28;1249;-76
2023/08/08 00:04:48;;;;;;;;;;;;;;;24.15;58.46;99137.53;347209;28;1310;-76
2023/08/08 00:04:58;;;;;;;;;;;;;;;24.17;57.64;99132.84;346348;28;1255;-76
2023/08/08 00:05:08;;;;;;;;;;;;;;;24.16;57.72;99128.50;345535;28;1225;-76
2023/08/08 00:05:19;;;;;;;;;;;;;;;24.15;57.53;99131.34;346300;28;1233;-76
2023/08/08 00:05:29;;;;;;;;;;;;;;;24.15;56.95;99134.03;345054;28;755;-76
2023/08/08 00:05:39;;;;;;;;;;;;;;;24.16;57.23;99127.66;343687;28;1395;-76
2023/08/08 00:05:50;;;;;;;;;;;;;;;24.13;56.63;99136.00;343962;28;1292;-76
2023/08/08 00:06:00;;;;;;;;;;;;;;;24.14;56.97;99133.19;343632;28;1182;-76
2023/08/08 00:06:10;;;;;;;;;;;;;;;24.15;57.12;99134.84;345960;28;1232;-76
2023/08/08 00:06:20;;;;;;;;;;;;;;;24.12;56.97;99132.50;348133;28;1158;-77
2023/08/08 00:06:31;;;;;;;;;;;;;;;24.10;56.71;99137.16;346048;28;1403;-76
2023/08/08 00:06:41;;;;;;;;;;;;;;;24.10;57.23;99130.97;343531;28;1314;-76
2023/08/08 00:06:51;;;;;;;;;;;;;;;24.10;57.11;99134.50;340568;28;1238;-76
2023/08/08 00:07:01;;;;;;;;;;;;;;;24.09;56.99;99130.16;338244;29;1735;-76
2023/08/08 00:07:12;;;;;;;;;;;;;;;24.09;57.09;99137.31;339550;29;884;-76
2023/08/08 00:07:22;;;;;;;;;;;;;;;24.06;56.98;99130.47;336661;29;1350;-76
2023/08/08 00:07:32;;;;;;;;;;;;;;;24.03;56.96;99130.78;337254;29;829;-76
2023/08/08 00:07:42;;;;;;;;;;;;;;;24.02;57.21;99129.09;338354;29;1312;-76
2023/08/08 00:07:53;;;;;;;;;;;;;;;24.01;57.71;99126.59;341753;28;1306;-76
2023/08/08 00:08:03;;;;;;;;;;;;;;;24.01;57.34;99132.78;342002;28;1089;-76
2023/08/08 00:08:13;;;;;;;;;;;;;;;24.01;57.82;99129.25;340836;28;1453;-76
2023/08/08 00:08:23;;;;;;;;;;;;;;;24.02;57.39;99131.78;343829;28;1363;-76
2023/08/08 00:08:34;;;;;;;;;;;;;;;24.03;57.35;99130.78;340564;29;1933;-76
2023/08/08 00:08:44;;;;;;;;;;;;;;;24.04;57.63;99134.28;340958;29;816;-76
2023/08/08 00:08:54;;;;;;;;;;;;;;;24.04;57.46;99132.47;340331;29;1920;-76
2023/08/08 00:09:04;;;;;;;;;;;;;;;24.03;57.71;99138.81;339434;29;1885;-76
2023/08/08 00:09:15;;;;;;;;;;;;;;;24.03;57.42;99141.47;338312;29;759;-76
2023/08/08 00:09:25;;;;;;;;;;;;;;;24.05;57.25;99135.97;336742;29;1928;-76
2023/08/08 00:09:35;;;;;;;;;;;;;;;24.07;57.29;99132.13;335749;29;1550;-76
2023/08/08 00:09:45;;;;;;;;;;;;;;;24.08;57.59;99125.78;335959;29;1086;-76
2023/08/08 00:09:56;;;;;;;;;;;;;;;24.08;57.45;99128.47;339570;29;926;-76
2023/08/08 00:10:06;;;;;;;;;;;;;;;24.08;57.23;99133.81;338824;29;1303;-76
2023/08/08 00:10:16;;;;;;;;;;;;;;;24.09;57.48;99135.50;338012;29;1896;-76
2023/08/08 00:10:27;;;;;;;;;;;;;;;24.10;57.13;99134.50;338375;29;2075;-76
2023/08/08 00:10:37;;;;;;;;;;;;;;;24.11;57.45;99138.00;337615;29;2403;-76
2023/08/08 00:10:47;;;;;;;;;;;;;;;24.12;57.26;99137.00;334814;29;2318;-76
2023/08/08 00:10:57;;;;;;;;;;;;;;;24.13;57.15;99136.84;331916;29;1313;-76
2023/08/08 00:11:08;;;;;;;;;;;;;;;24.14;57.66;99138.53;332316;29;2452;-76
2023/08/08 00:11:18;;;;;;;;;;;;;;;24.14;57.63;99140.38;330484;29;2519;-76
2023/08/08 00:11:31;;;;;;;;;;;;;;;24.13;57.85;99144.88;331654;29;1462;-76
2023/08/08 00:11:41;;;;;;;;;;;;;;;24.14;58.00;99138.53;331911;29;1320;-76
2023/08/08 00:11:51;;;;;;;;;;;;;;;24.15;57.64;99132.19;331783;29;1950;-76
2023/08/08 00:12:02;;;;;;;;;;;;;;;24.17;57.47;99142.72;331790;29;1432;-76
2023/08/08 00:12:12;;;;;;;;;;;;;;;24.19;57.70;99130.88;329957;29;1492;-76
2023/08/08 00:12:22;;;;;;;;;;;;;;;24.19;58.06;99138.88;330672;29;1878;-76
2023/08/08 00:12:33;;;;;;;;;;;;;;;24.21;57.76;99144.06;331451;29;2380;-76
2023/08/08 00:12:43;;;;;;;;;;;;;;;24.21;58.04;99136.88;330690;29;1306;-76
2023/08/08 00:12:53;;;;;;;;;;;;;;;24.19;57.55;99136.22;332667;29;2723;-76
2023/08/08 00:13:03;;;;;;;;;;;;;;;24.19;57.31;99138.88;331046;29;3328;-76
2023/08/08 00:13:14;;;;;;;;;;;;;;;24.17;57.12;99138.22;326710;30;1381;-76
2023/08/08 00:13:24;;;;;;;;;;;;;;;24.14;57.61;99133.19;328262;29;3536;-76
2023/08/08 00:13:34;;;;;;;;;;;;;;;24.13;57.63;99136.84;324687;30;3213;-76
2023/08/08 00:13:44;;;;;;;;;;;;;;;24.13;57.73;99130.66;319851;30;810;-76
2023/08/08 00:13:55;;;;;;;;;;;;;;;24.14;57.94;99138.53;318267;30;2971;-76
2023/08/08 00:14:06;;;;;;;;;;;;;;;24.15;57.87;99134.03;319849;30;2429;-76
2023/08/08 00:14:16;;;;;;;;;;;;;;;24.15;57.69;99145.56;320324;30;2075;-76
2023/08/08 00:14:26;;;;;;;;;;;;;;;24.14;57.78;99133.19;318707;31;870;-76
2023/08/08 00:14:36;;;;;;;;;;;;;;;24.13;57.58;99142.19;318400;30;2127;-76
2023/08/08 00:14:47;;;;;;;;;;;;;;;24.13;57.62;99139.53;317534;31;3099;-76
2023/08/08 00:14:57;;;;;;;;;;;;;;;24.14;57.71;99132.34;317102;31;1404;-77
2023/08/08 00:15:08;;;;;;;;;;;;;;;24.15;57.66;99134.84;313964;31;3909;-76
2023/08/08 00:15:18;;;;;;;;;;;;;;;24.15;57.86;99134.84;314278;31;4441;-76
2023/08/08 00:15:28;;;;;;;;;;;;;;;24.16;57.78;99136.53;317656;31;901;-76
2023/08/08 00:15:39;;;;;;;;;;;;;;;24.16;57.76;99133.84;316952;31;4868;-76
2023/08/08 00:15:49;;;;;;;;;;;;;;;24.17;57.51;99134.69;315736;31;3954;-76
2023/08/08 00:15:59;;;;;;;;;;;;;;;24.17;57.37;99130.19;314108;31;1256;-76
2023/08/08 00:16:10;;;;;;;;;;;;;;;24.17;57.49;99138.22;315466;31;4367;-76
2023/08/08 00:16:20;;;;;;;;;;;;;;;24.18;57.52;99142.56;313186;31;4235;-76
2023/08/08 00:16:30;;;;;;;;;;;;;;;24.19;57.57;99135.38;313154;31;783;-76
2023/08/08 00:16:41;;;;;;;;;;;;;;;24.19;58.23;99140.72;312492;31;3280;-76
2023/08/08 00:16:51;;;;;;;;;;;;;;;24.19;58.19;99136.22;312011;31;3487;-77
2023/08/08 00:17:01;;;;;;;;;;;;;;;24.19;58.42;99141.56;311972;31;4804;-76
2023/08/08 00:17:11;;;;;;;;;;;;;;;24.20;58.27;99137.06;315240;31;1017;-76
2023/08/08 00:17:22;;;;;;;;;;;;;;;24.19;57.63;99141.56;311619;31;5137;-76
2023/08/08 00:17:32;;;;;;;;;;;;;;;24.19;58.08;99136.22;308739;31;6999;-77
2023/08/08 00:17:42;;;;;;;;;;;;;;;24.21;57.55;99144.06;308714;32;868;-77
2023/08/08 00:17:52;;;;;;;;;;;;;;;24.19;57.58;99144.22;309743;31;6201;-77
2023/08/08 00:18:03;;;;;;;;;;;;;;;24.19;57.24;99141.56;308851;31;6270;-76
2023/08/08 00:18:13;;;;;;;;;;;;;;;24.20;57.60;99139.72;308579;32;1343;-76
2023/08/08 00:18:23;;;;;;;;;;;;;;;24.21;57.64;99144.06;301587;32;5727;-76
2023/08/08 00:18:33;;;;;;;;;;;;;;;24.21;57.34;99131.53;302798;32;4619;-76
2023/08/08 00:18:44;;;;;;;;;;;;;;;24.23;57.45;99128.72;304301;32;1418;-76
2023/08/08 00:18:54;;;;;;;;;;;;;;;24.24;57.39;99140.25;303099;32;4820;-76
2023/08/08 00:19:04;;;;;;;;;;;;;;;24.25;57.71;99133.91;301640;32;4958;-77
2023/08/08 00:19:14;;;;;;;;;;;;;;;24.25;58.32;99139.25;302130;32;1380;-76
2023/08/08 00:19:25;;;;;;;;;;;;;;;24.20;57.97;99132.53;297912;32;6740;-77
2023/08/08 00:19:35;;;;;;;;;;;;;;;24.21;58.04;99144.91;296787;32;7675;-76
2023/08/08 00:19:45;;;;;;;;;;;;;;;24.21;58.06;99141.41;297883;33;2672;-76
2023/08/08 00:19:55;;;;;;;;;;;;;;;24.21;57.98;99139.56;296078;33;9128;-76
2023/08/08 00:20:07;;;;;;;;;;;;;;;24.21;58.40;99138.72;293402;33;9310;-76
2023/08/08 00:20:17;;;;;;;;;;;;;;;24.21;58.11;99139.56;290381;33;8451;-76
2023/08/08 00:20:27;;;;;;;;;;;;;;;24.20;57.87;99134.38;295225;33;1001;-76
2023/08/08 00:20:37;;;;;;;;;;;;;;;24.16;57.55;99136.53;292183;33;8177;-76
2023/08/08 00:20:48;;;;;;;;;;;;;;;24.16;57.57;99136.53;290008;33;6430;-76
2023/08/08 00:20:58;;;;;;;;;;;;;;;24.16;57.67;99136.53;293237;33;792;-76
2023/08/08 00:22:48;;;;;;;;;;;;;;;24.13;58.21;99136.84;2493648;27;19937;-77
2023/08/08 00:22:58;;;;;;;;;;;;;;;24.13;57.89;99136.00;356266;27;886;-77
2023/08/08 00:23:08;;;;;;;;;;;;;;;24.14;58.24;99135.84;354501;27;1147;-77
2023/08/08 00:23:19;;;;;;;;;;;;;;;24.12;58.01;99140.53;351639;28;1502;-77
2023/08/08 00:23:29;;;;;;;;;;;;;;;24.13;57.96;99144.03;348991;28;1170;-77
2023/08/08 00:23:39;;;;;;;;;;;;;;;24.12;57.96;99140.53;347721;28;794;-77
2023/08/08 00:23:49;;;;;;;;;;;;;;;24.12;57.74;99139.69;349040;28;879;-77
2023/08/08 00:23:59;;;;;;;;;;;;;;;24.12;58.06;99135.19;349041;28;804;-77
2023/08/08 00:24:10;;;;;;;;;;;;;;;24.13;57.89;99142.19;350193;28;1491;-77
2023/08/08 00:24:20;;;;;;;;;;;;;;;24.12;57.99;99140.53;349162;28;1036;-77
2023/08/08 00:24:30;;;;;;;;;;;;;;;24.14;57.95;99133.19;349115;28;797;-76
2023/08/08 00:24:40;;;;;;;;;;;;;;;24.13;57.42;99142.19;348150;28;967;-77
2023/08/08 00:24:51;;;;;;;;;;;;;;;24.13;57.60;99136.00;349044;28;1279;-77
2023/08/08 00:25:01;;;;;;;;;;;;;;;24.11;57.83;99144.19;351738;28;1259;-77
2023/08/08 00:25:11;;;;;;;;;;;;;;;24.11;57.48;99144.19;348833;28;1440;-77
2023/08/08 00:25:21;;;;;;;;;;;;;;;24.06;57.86;99135.81;349064;28;1334;-77
2023/08/08 00:25:31;;;;;;;;;;;;;;;24.05;57.94;99139.47;351987;28;967;-77
2023/08/08 00:25:42;;;;;;;;;;;;;;;24.02;57.93;99137.13;351924;28;875;-77
2023/08/08 00:25:52;;;;;;;;;;;;;;;24.02;58.25;99141.63;350450;28;1325;-77
2023/08/08 00:26:02;;;;;;;;;;;;;;;24.03;57.72;99135.28;350454;28;1218;-77
2023/08/08 00:26:12;;;;;;;;;;;;;;;24.05;57.68;99141.31;348860;28;1279;-77
2023/08/08 00:26:23;;;;;;;;;;;;;;;24.04;58.13;99143.16;348928;28;954;-77
2023/08/08 00:26:33;;;;;;;;;;;;;;;24.05;57.93;99139.47;348815;28;1386;-77
2023/08/08 00:26:43;;;;;;;;;;;;;;;24.07;57.94;99140.16;347043;28;1607;-77
2023/08/08 00:26:54;;;;;;;;;;;;;;;24.09;57.72;99140.84;346300;28;1518;-77
2023/08/08 00:27:04;;;;;;;;;;;;;;;24.08;58.07;99141.84;344979;28;1173;-77
2023/08/08 00:27:14;;;;;;;;;;;;;;;24.08;58.06;99144.50;345714;28;1299;-77
2023/08/08 00:27:24;;;;;;;;;;;;;;;24.09;58.08;99146.19;347656;28;955;-77
2023/08/08 00:27:35;;;;;;;;;;;;;;;24.11;58.12;99143.34;347719;28;1404;-77
2023/08/08 00:27:45;;;;;;;;;;;;;;;24.10;57.95;99139.84;347776;28;839;-77
2023/08/08 00:27:55;;;;;;;;;;;;;;;24.12;57.74;99145.88;347675;28;812;-77
2023/08/08 00:28:05;;;;;;;;;;;;;;;24.11;57.79;99144.19;347798;28;1369;-77
2023/08/08 00:28:16;;;;;;;;;;;;;;;24.09;57.93;99140.84;347686;28;1372;-77
2023/08/08 00:28:26;;;;;;;;;;;;;;;24.10;58.00;99147.03;347570;28;902;-77
2023/08/08 00:28:36;;;;;;;;;;;;;;;24.09;57.66;99140.84;344904;28;1395;-77
2023/08/08 00:28:46;;;;;;;;;;;;;;;24.10;58.01;99149.69;341612;28;2722;-77
2023/08/08 00:28:57;;;;;;;;;;;;;;;24.08;58.15;99144.50;342895;28;1219;-77
2023/08/08 00:29:07;;;;;;;;;;;;;;;24.11;58.24;99148.72;342049;28;953;-78
2023/08/08 00:29:17;;;;;;;;;;;;;;;24.10;57.81;99152.38;342287;28;1290;-77
2023/08/08 00:29:27;;;;;;;;;;;;;;;24.09;57.93;99145.34;344782;28;1264;-77
2023/08/08 00:29:38;;;;;;;;;;;;;;;24.07;58.05;99140.16;344964;28;1200;-77
2023/08/08 00:29:48;;;;;;;;;;;;;;;24.06;57.76;99143.84;344953;28;1400;-77
2023/08/08 00:29:58;;;;;;;;;;;;;;;24.00;58.32;99149.81;345254;28;1422;-77
2023/08/08 00:30:09;;;;;;;;;;;;;;;24.00;58.37;99147.16;343374;28;854;-77
2023/08/08 00:30:19;;;;;;;;;;;;;;;24.01;58.12;99147.97;345097;28;856;-76
2023/08/08 00:30:29;;;;;;;;;;;;;;;24.01;58.13;99143.47;343698;28;2377;-76
2023/08/08 00:30:39;;;;;;;;;;;;;;;24.02;58.49;99153.16;345149;28;1323;-76
2023/08/08 00:30:49;;;;;;;;;;;;;;;24.03;58.42;99149.50;346264;28;797;-76
2023/08/08 00:31:00;;;;;;;;;;;;;;;24.05;58.30;99149.34;347224;28;1462;-76
2023/08/08 00:31:10;;;;;;;;;;;;;;;24.06;58.57;99151.84;346388;28;1298;-76
2023/08/08 00:31:20;;;;;;;;;;;;;;;24.05;58.68;99144.00;347724;28;737;-78
2023/08/08 00:31:30;;;;;;;;;;;;;;;24.06;58.89;99156.38;344740;28;1578;-77
2023/08/08 00:31:41;;;;;;;;;;;;;;;24.03;58.95;99154.84;341205;28;1981;-76
2023/08/08 00:31:51;;;;;;;;;;;;;;;24.02;59.28;99150.50;341784;28;1624;-76
2023/08/08 00:32:01;;;;;;;;;;;;;;;23.98;58.75;99149.13;345827;28;1057;-76
2023/08/08 00:32:11;;;;;;;;;;;;;;;23.95;59.03;99148.63;344168;28;936;-76
2023/08/08 00:32:21;;;;;;;;;;;;;;;23.91;59.11;99142.75;344951;28;1311;-76
2023/08/08 00:32:32;;;;;;;;;;;;;;;23.90;59.31;99146.41;342176;28;1328;-76
2023/08/08 00:32:42;;;;;;;;;;;;;;;23.92;59.33;99148.94;339915;28;1294;-76
2023/08/08 00:32:52;;;;;;;;;;;;;;;23.92;59.41;99139.06;341830;28;1792;-76
2023/08/08 00:33:02;;;;;;;;;;;;;;;23.91;59.11;99153.44;337012;29;1224;-76
2023/08/08 00:33:13;;;;;;;;;;;;;;;23.92;59.41;99149.78;336471;29;1859;-77
2023/08/08 00:33:23;;;;;;;;;;;;;;;23.93;59.42;99146.09;334788;29;2229;-76
2023/08/08 00:33:33;;;;;;;;;;;;;;;23.96;59.55;99144.94;334442;29;1095;-77
2023/08/08 00:33:43;;;;;;;;;;;;;;;23.97;59.40;99150.13;332661;29;2199;-76
2023/08/08 00:33:54;;;;;;;;;;;;;;;23.99;59.34;99156.16;329488;29;1578;-76
2023/08/08 00:34:04;;;;;;;;;;;;;;;24.01;59.57;99147.97;329400;30;1344;-77
2023/08/08 00:34:14;;;;;;;;;;;;;;;24.01;59.50;99148.81;328595;30;816;-76
2023/08/08 00:34:24;;;;;;;;;;;;;;;24.05;59.36;99150.19;329273;29;1285;-76
2023/08/08 00:34:35;;;;;;;;;;;;;;;24.06;59.50;99146.50;331916;29;1318;-76
2023/08/08 00:34:45;;;;;;;;;;;;;;;24.09;59.31;99146.19;330597;29;1897;-76
2023/08/08 00:34:55;;;;;;;;;;;;;;;24.11;59.55;99151.38;331413;29;2069;-76
2023/08/08 00:35:05;;;;;;;;;;;;;;;24.10;59.82;99153.22;329506;30;1112;-76
2023/08/08 00:35:16;;;;;;;;;;;;;;;24.07;59.60;99148.19;326198;30;2345;-76
2023/08/08 00:35:26;;;;;;;;;;;;;;;24.07;59.97;99148.19;324817;30;2372;-76
2023/08/08 00:35:36;;;;;;;;;;;;;;;24.09;59.76;99151.53;327070;30;1256;-76
2023/08/08 00:35:46;;;;;;;;;;;;;;;24.10;59.74;99147.03;326318;30;2656;-76
2023/08/08 00:35:57;;;;;;;;;;;;;;;24.09;59.81;99151.53;328896;29;2666;-76
2023/08/08 00:36:07;;;;;;;;;;;;;;;24.10;59.34;99142.50;325827;30;1992;-76
2023/08/08 00:36:17;;;;;;;;;;;;;;;24.10;59.39;99147.88;325571;30;876;-76
2023/08/08 00:36:27;;;;;;;;;;;;;;;24.11;59.31;99146.88;324312;30;1274;-76
2023/08/08 00:36:37;;;;;;;;;;;;;;;24.11;59.20;99146.88;321038;30;2132;-77
2023/08/08 00:36:48;;;;;;;;;;;;;;;24.12;59.14;99145.88;322112;30;935;-76
2023/08/08 00:36:58;;;;;;;;;;;;;;;24.07;59.49;99148.19;320479;30;2464;-77
2023/08/08 00:37:08;;;;;;;;;;;;;;;24.05;59.50;99147.50;319244;30;2788;-77
2023/08/08 00:37:18;;;;;;;;;;;;;;;24.03;59.32;99146.81;319844;30;871;-77
2023/08/08 00:37:29;;;;;;;;;;;;;;;24.03;59.57;99149.50;317987;30;3314;-77
2023/08/08 00:37:39;;;;;;;;;;;;;;;24.04;59.76;99145.81;318753;30;3282;-77
2023/08/08 00:37:49;;;;;;;;;;;;;;;24.04;60.09;99153.84;320115;30;2306;-76
2023/08/08 00:37:59;;;;;;;;;;;;;;;24.02;60.06;99146.97;318152;30;3698;-77
2023/08/08 00:38:09;;;;;;;;;;;;;;;24.02;59.89;99145.16;316656;31;3209;-76
2023/08/08 00:38:20;;;;;;;;;;;;;;;24.01;60.00;99151.50;312975;31;1208;-76
2023/08/08 00:38:30;;;;;;;;;;;;;;;24.03;59.84;99154.00;315215;31;2302;-76
2023/08/08 00:38:40;;;;;;;;;;;;;;;24.01;59.80;99154.16;314434;31;2130;-76
2023/08/08 00:38:50;;;;;;;;;;;;;;;24.01;60.16;99146.16;314286;31;901;-76
2023/08/08 00:39:01;;;;;;;;;;;;;;;23.99;60.29;99150.81;315612;31;3138;-76
2023/08/08 00:39:11;;;;;;;;;;;;;;;24.01;59.82;99156.00;316868;30;3765;-76
2023/08/08 00:39:22;;;;;;;;;;;;;;;24.00;60.49;99152.50;317531;31;1346;-76
2023/08/08 00:39:32;;;;;;;;;;;;;;;23.99;59.96;99156.16;311116;31;4075;-77
2023/08/08 00:39:45;;;;;;;;;;;;;;;23.99;59.84;99155.31;313423;31;5101;-77
2023/08/08 00:39:56;;;;;;;;;;;;;;;23.98;59.95;99154.47;314396;31;4559;-77
2023/08/08 00:40:06;;;;;;;;;;;;;;;24.00;60.82;99155.16;315412;31;1087;-77
2023/08/08 00:40:16;;;;;;;;;;;;;;;24.01;60.51;99150.66;315522;31;4515;-76
2023/08/08 00:40:26;;;;;;;;;;;;;;;24.01;60.33;99151.50;314920;31;4473;-76
2023/08/08 00:40:37;;;;;;;;;;;;;;;24.02;60.47;99153.16;311915;31;1474;-76
2023/08/08 00:40:47;;;;;;;;;;;;;;;24.03;60.61;99151.34;312576;31;3043;-76
2023/08/08 00:40:57;;;;;;;;;;;;;;;24.01;60.61;99148.81;312490;31;3734;-76
2023/08/08 00:41:07;;;;;;;;;;;;;;;23.97;60.40;99147.47;312365;31;4325;-76
2023/08/08 00:41:18;;;;;;;;;;;;;;;23.98;60.31;99149.13;310791;31;1322;-76
2023/08/08 00:41:28;;;;;;;;;;;;;;;23.96;59.83;99156.47;307490;31;5449;-76
2023/08/08 00:41:38;;;;;;;;;;;;;;;23.95;60.00;99149.47;305873;31;5909;-77
2023/08/08 00:41:48;;;;;;;;;;;;;;;23.95;59.95;99152.13;308690;32;891;-77
2023/08/08 00:41:59;;;;;;;;;;;;;;;23.97;60.45;99154.66;307328;32;6265;-77
2023/08/08 00:42:09;;;;;;;;;;;;;;;23.98;60.10;99151.81;303670;32;6480;-77
2023/08/08 00:42:19;;;;;;;;;;;;;;;24.00;60.16;99151.66;306547;32;800;-77
2023/08/08 00:42:29;;;;;;;;;;;;;;;24.02;60.41;99155.00;305116;32;5872;-77
2023/08/08 00:42:39;;;;;;;;;;;;;;;24.03;60.70;99146.81;305879;32;5738;-77
2023/08/08 00:42:50;;;;;;;;;;;;;;;24.05;60.08;99158.19;306514;32;867;-77
2023/08/08 00:43:00;;;;;;;;;;;;;;;24.07;60.35;99148.19;301421;32;4351;-76
2023/08/08 00:43:10;;;;;;;;;;;;;;;24.07;60.26;99145.50;300186;32;5955;-76
2023/08/08 00:43:20;;;;;;;;;;;;;;;24.08;59.82;99143.69;301206;32;1246;-76
2023/08/08 00:43:31;;;;;;;;;;;;;;;24.09;59.86;99145.34;298391;32;6344;-77
2023/08/08 00:43:43;;;;;;;;;;;;;;;24.08;59.77;99147.19;298543;32;6983;-77
2023/08/08 00:43:53;;;;;;;;;;;;;;;24.06;59.84;99149.19;297751;33;7912;-77
2023/08/08 00:44:03;;;;;;;;;;;;;;;24.04;60.14;99145.00;297165;33;1312;-77
2023/08/08 00:44:13;;;;;;;;;;;;;;;24.04;60.27;99147.66;295429;33;8647;-76
2023/08/08 00:44:24;;;;;;;;;;;;;;;24.03;60.11;99144.16;292166;33;10455;-76
2023/08/08 00:44:34;;;;;;;;;;;;;;;24.03;60.40;99146.81;289210;34;1685;-76
2023/08/08 00:44:44;;;;;;;;;;;;;;;24.02;60.76;99150.50;288885;33;8279;-76
2023/08/08 00:45:01;;;;;;;;;;;;;;;24.00;60.46;99144.47;291079;33;8079;-76
2023/08/08 00:45:11;;;;;;;;;;;;;;;24.03;60.64;99146.00;293703;33;6697;-76
2023/08/08 00:45:21;;;;;;;;;;;;;;;24.04;60.47;99145.81;291186;33;1237;-76
2023/08/08 00:45:32;;;;;;;;;;;;;;;24.05;60.34;99150.19;287196;33;7718;-77
2023/08/08 00:47:14;;;;;;;;;;;;;;;23.99;60.23;99137.44;2494082;27;19937;-76
2023/08/08 00:47:24;;;;;;;;;;;;;;;23.98;60.21;99142.94;354650;27;814;-76
2023/08/08 00:47:35;;;;;;;;;;;;;;;23.97;60.34;99136.78;351912;28;1179;-77
2023/08/08 00:47:45;;;;;;;;;;;;;;;23.99;60.65;99150.81;351998;28;1041;-77
2023/08/08 00:47:55;;;;;;;;;;;;;;;23.99;60.33;99144.63;348939;28;1317;-77
2023/08/08 00:48:05;;;;;;;;;;;;;;;23.99;60.70;99149.97;349181;28;1030;-77
2023/08/08 00:48:17;;;;;;;;;;;;;;;23.99;60.58;99145.47;348842;28;1655;-76
2023/08/08 00:48:27;;;;;;;;;;;;;;;24.00;60.33;99144.47;348970;28;1243;-76
2023/08/08 00:48:37;;;;;;;;;;;;;;;24.01;60.43;99140.81;350359;28;1177;-78
2023/08/08 00:48:48;;;;;;;;;;;;;;;24.01;60.88;99142.63;349178;28;1312;-78
2023/08/08 00:48:58;;;;;;;;;;;;;;;24.00;60.46;99139.13;347719;28;844;-78
2023/08/08 00:49:08;;;;;;;;;;;;;;;24.00;60.38;99138.28;347522;28;1311;-77
2023/08/08 00:49:18;;;;;;;;;;;;;;;24.00;60.33;99143.63;349118;28;894;-77
2023/08/08 00:49:28;;;;;;;;;;;;;;;24.00;60.83;99139.13;349152;28;825;-77
2023/08/08 00:49:39;;;;;;;;;;;;;;;23.98;60.32;99141.13;350211;28;1436;-77
2023/08/08 00:49:49;;;;;;;;;;;;;;;23.97;60.61;99139.44;349011;28;1306;-77
2023/08/08 00:50:00;;;;;;;;;;;;;;;23.96;60.52;99143.09;350507;28;1216;-77
2023/08/08 00:50:10;;;;;;;;;;;;;;;23.97;60.61;99147.47;348987;28;919;-77
2023/08/08 00:50:20;;;;;;;;;;;;;;;23.97;60.26;99142.13;350557;28;792;-77
2023/08/08 00:50:31;;;;;;;;;;;;;;;23.99;60.55;99139.28;350494;28;882;-77
2023/08/08 00:50:42;;;;;;;;;;;;;;;23.99;60.60;99140.13;350478;28;848;-77
2023/08/08 00:50:52;;;;;;;;;;;;;;;24.00;60.73;99143.63;348906;28;1212;-77
2023/08/08 00:51:02;;;;;;;;;;;;;;;24.00;60.50;99138.28;349098;28;1053;-77
2023/08/08 00:51:13;;;;;;;;;;;;;;;24.00;60.20;99144.47;351503;28;1392;-77
2023/08/08 00:51:23;;;;;;;;;;;;;;;23.99;60.63;99153.50;350276;28;1225;-77
2023/08/08 00:51:33;;;;;;;;;;;;;;;23.99;60.93;99140.13;349130;28;916;-77
2023/08/08 00:51:43;;;;;;;;;;;;;;;24.01;60.70;99139.97;347711;28;1259;-77
2023/08/08 00:51:53;;;;;;;;;;;;;;;24.01;60.70;99143.47;346330;28;1306;-77
2023/08/08 00:52:04;;;;;;;;;;;;;;;24.01;60.87;99138.13;347701;28;1283;-77
2023/08/08 00:52:14;;;;;;;;;;;;;;;24.00;61.18;99143.63;347666;28;1103;-77
2023/08/08 00:52:25;;;;;;;;;;;;;;;23.99;60.78;99140.13;347746;28;872;-77
2023/08/08 00:52:35;;;;;;;;;;;;;;;23.99;60.57;99145.47;349396;28;890;-77
2023/08/08 00:52:45;;;;;;;;;;;;;;;23.96;60.60;99144.94;349051;28;1209;-77
2023/08/08 00:52:56;;;;;;;;;;;;;;;23.94;60.80;99142.44;348585;28;1335;-77
2023/08/08 00:53:06;;;;;;;;;;;;;;;23.94;60.71;99142.44;347548;28;1256;-77
2023/08/08 00:53:17;;;;;;;;;;;;;;;23.91;60.92;99131.22;346320;28;843;-77
2023/08/08 00:53:30;;;;;;;;;;;;;;;23.92;60.66;99140.91;348681;28;1118;-77
2023/08/08 00:53:41;;;;;;;;;;;;;;;23.92;60.92;99144.44;347967;28;1040;-77
2023/08/08 00:53:51;;;;;;;;;;;;;;;23.92;60.90;99144.44;346984;28;1365;-77
2023/08/08 00:54:01;;;;;;;;;;;;;;;23.91;61.01;99137.41;349235;28;852;-77
2023/08/08 00:54:11;;;;;;;;;;;;;;;23.92;60.97;99140.91;347640;28;874;-77
2023/08/08 00:54:21;;;;;;;;;;;;;;;23.94;61.04;99141.59;347813;28;813;-77
2023/08/08 00:54:32;;;;;;;;;;;;;;;23.94;60.92;99141.59;346447;28;847;-78
2023/08/08 00:54:42;;;;;;;;;;;;;;;23.94;61.11;99139.75;343758;28;1236;-77
2023/08/08 00:54:52;;;;;;;;;;;;;;;23.93;61.21;99143.44;344032;28;1158;-77
2023/08/08 00:55:03;;;;;;;;;;;;;;;23.93;61.04;99140.75;344925;28;1473;-77
2023/08/08 00:55:14;;;;;;;;;;;;;;;23.94;60.80;99147.78;339636;29;857;-77
2023/08/08 00:55:24;;;;;;;;;;;;;;;23.95;60.76;99149.47;340496;28;1375;-77
2023/08/08 00:55:35;;;;;;;;;;;;;;;23.95;61.45;99143.28;339137;29;1384;-77
2023/08/08 00:55:46;;;;;;;;;;;;;;;23.95;60.85;99138.75;337025;29;857;-77
2023/08/08 00:55:56;;;;;;;;;;;;;;;23.96;60.88;99150.28;340166;29;1651;-77
2023/08/08 00:56:06;;;;;;;;;;;;;;;23.97;60.66;99149.28;340581;28;2748;-77
2023/08/08 00:56:17;;;;;;;;;;;;;;;23.98;61.27;99149.13;340767;29;2542;-77
2023/08/08 00:56:27;;;;;;;;;;;;;;;23.98;60.82;99143.78;342047;28;1257;-77
2023/08/08 00:56:37;;;;;;;;;;;;;;;23.98;61.08;99142.94;342228;28;1314;-77
2023/08/08 00:56:47;;;;;;;;;;;;;;;23.96;60.81;99140.44;341039;29;845;-77
2023/08/08 00:56:57;;;;;;;;;;;;;;;23.95;60.82;99154.81;340831;28;1241;-77
2023/08/08 00:57:08;;;;;;;;;;;;;;;23.93;61.25;99140.75;340608;29;1459;-77
2023/08/08 00:57:18;;;;;;;;;;;;;;;23.93;60.88;99146.09;338450;29;1218;-77
2023/08/08 00:57:28;;;;;;;;;;;;;;;23.92;61.01;99148.94;335705;29;1447;-77
2023/08/08 00:57:39;;;;;;;;;;;;;;;23.93;61.51;99151.44;334743;29;1498;-77
2023/08/08 00:57:50;;;;;;;;;;;;;;;23.94;60.99;99145.09;333053;29;2070;-77
2023/08/08 00:58:00;;;;;;;;;;;;;;;23.95;61.26;99145.94;334436;29;950;-77
2023/08/08 00:58:10;;;;;;;;;;;;;;;23.96;61.23;99145.78;335052;29;2124;-77
2023/08/08 00:58:20;;;;;;;;;;;;;;;23.98;61.53;99149.13;336282;29;1663;-77
2023/08/08 00:58:31;;;;;;;;;;;;;;;23.98;61.25;99149.13;335646;29;1288;-77
2023/08/08 00:58:41;;;;;;;;;;;;;;;24.00;61.30;99147.16;335685;29;885;-77